| time (UTC) | temp F | wind direction | speed MPH | gust MPH | rain 1hr in | rain 24hr in | rain mn in | humidity % | barometer mb |
| 20260508085220 | 44 | 248 | 0.0 | 0.0 | 0.00 | 0.00 | 0.00 | 95 | 1019.7 |
| 20260508083019 | 44 | 248 | 0.0 | 0.0 | 0.00 | 0.00 | 0.00 | 95 | 1019.5 |
| 20260508081518 | 44 | 248 | 0.0 | 0.0 | 0.00 | 0.00 | 0.00 | 96 | 1019.5 |
| 20260508080010 | 43 | 248 | 0.0 | 0.0 | 0.00 | 0.00 | 0.00 | 96 | 1019.5 |
| 20260508074502 | 42 | 248 | 0.0 | 0.0 | 0.00 | 0.00 | 0.00 | 95 | 1019.5 |
| 20260508072953 | 41 | 248 | 0.0 | 0.0 | 0.00 | 0.00 | 0.00 | 95 | 1019.5 |
| 20260508071450 | 41 | 248 | 0.0 | 0.0 | 0.00 | 0.00 | 0.00 | 94 | 1019.4 |
| 20260508065951 | 42 | 248 | 0.0 | 0.0 | 0.00 | 0.00 | 0.00 | 94 | 1019.3 |
| 20260508064440 | 42 | 248 | 0.0 | 0.0 | 0.00 | 0.00 | 0.00 | 93 | 1019.3 |
| 20260508062938 | 42 | 248 | 0.0 | 0.0 | 0.00 | 0.00 | 0.00 | 93 | 1019.2 |
| 20260508061436 | 43 | 248 | 0.0 | 0.0 | 0.00 | 0.00 | 0.00 | 93 | 1019.1 |
| 20260508055932 | 43 | 248 | 0.0 | 0.0 | 0.00 | 0.00 | 0.00 | 93 | 1019.0 |
| 20260508054429 | 44 | 248 | 0.0 | 0.0 | 0.00 | 0.00 | 0.00 | 92 | 1019.0 |
| 20260508052927 | 45 | 248 | 0.0 | 0.0 | 0.00 | 0.00 | 0.00 | 93 | 1019.0 |
| 20260508051424 | 45 | 248 | 0.0 | 0.0 | 0.00 | 0.00 | 0.00 | 91 | 1018.9 |
| 20260508045914 | 46 | 248 | 0.0 | 0.0 | 0.00 | 0.00 | 0.00 | 91 | 1018.9 |
| 20260508045107 | 47 | 248 | 0.0 | 0.0 | 0.00 | 0.00 | 0.00 | 90 | 1018.9 |
| 20260508043614 | 48 | 248 | 0.0 | 0.0 | 0.00 | 0.00 | 0.00 | 88 | 1018.8 |
| 20260508041354 | 49 | 248 | 0.0 | 0.0 | 0.00 | 0.00 | 0.00 | 88 | 1018.8 |
| 20260508035851 | 49 | 248 | 0.0 | 0.0 | 0.00 | 0.00 | 0.00 | 87 | 1018.8 |
| 20260508034352 | 50 | 248 | 0.0 | 0.0 | 0.00 | 0.00 | 0.00 | 85 | 1018.7 |
| 20260508032847 | 51 | 248 | 0.0 | 0.0 | 0.00 | 0.00 | 0.00 | 83 | 1018.4 |
| 20260508031338 | 53 | 248 | 0.0 | 0.0 | 0.00 | 0.00 | 0.00 | 81 | 1018.2 |
| 20260508025836 | 53 | 248 | 0.0 | 3.0 | 0.00 | 0.00 | 0.00 | 79 | 1018.1 |
| 20260508024329 | 54 | 76 | 0.0 | 3.0 | 0.00 | 0.00 | 0.00 | 77 | 1018.0 |
| 20260508022827 | 55 | 94 | 0.0 | 3.0 | 0.00 | 0.00 | 0.00 | 76 | 1017.9 |
| 20260508022725 | 56 | 8 | 0.0 | 8.0 | 0.00 | 0.00 | 0.00 | 74 | 1017.9 |
| 20260508015826 | 57 | 148 | 0.0 | 4.0 | 0.00 | 0.00 | 0.00 | 72 | 1017.9 |
| 20260508014310 | 60 | 192 | 1.0 | 7.0 | 0.00 | 0.00 | 0.00 | 68 | 1017.9 |
| 20260508012808 | 61 | 46 | 2.0 | 4.0 | 0.00 | 0.00 | 0.00 | 66 | 1017.8 |
| 20260508011306 | 61 | 293 | 1.0 | 5.0 | 0.00 | 0.00 | 0.00 | 65 | 1017.8 |
| 20260508010458 | 61 | 268 | 2.0 | 6.0 | 0.00 | 0.00 | 0.00 | 65 | 1017.8 |
| 20260508004952 | 61 | 272 | 4.0 | 7.0 | 0.00 | 0.00 | 0.00 | 65 | 1018.0 |
| 20260508002801 | 62 | 147 | 2.0 | 8.0 | 0.00 | 0.00 | 0.00 | 64 | 1018.2 |
| 20260508001259 | 61 | 271 | 4.0 | 9.0 | 0.00 | 0.00 | 0.00 | 65 | 1018.0 |
| 20260508000515 | 62 | 349 | 2.0 | 8.0 | 0.00 | 0.00 | 0.00 | 64 | 1018.0 |
| 20260507234952 | 62 | 311 | 2.0 | 6.0 | 0.00 | 0.00 | 0.00 | 65 | 1018.2 |
| 20260507232758 | 61 | 314 | 2.0 | 6.0 | 0.00 | 0.00 | 0.00 | 65 | 1018.2 |
| 20260507231256 | 62 | 269 | 2.0 | 6.0 | 0.00 | 0.00 | 0.00 | 65 | 1018.3 |
| 20260507225755 | 61 | 259 | 3.0 | 8.0 | 0.00 | 0.00 | 0.00 | 65 | 1018.4 |
| 20260507224254 | 61 | 43 | 2.0 | 7.0 | 0.00 | 0.00 | 0.00 | 65 | 1018.7 |
| 20260507222751 | 61 | 233 | 4.0 | 8.0 | 0.00 | 0.00 | 0.00 | 65 | 1018.7 |
| 20260507221249 | 61 | 39 | 3.0 | 9.0 | 0.00 | 0.00 | 0.00 | 65 | 1018.6 |
| 20260507215748 | 61 | 152 | 4.0 | 9.0 | 0.00 | 0.00 | 0.00 | 65 | 1018.7 |
| 20260507214245 | 61 | 251 | 3.0 | 9.0 | 0.00 | 0.00 | 0.00 | 65 | 1018.8 |
| 20260507213443 | 62 | 73 | 3.0 | 8.0 | 0.00 | 0.00 | 0.00 | 64 | 1018.8 |
| 20260507211243 | 63 | 58 | 3.0 | 9.0 | 0.00 | 0.00 | 0.00 | 64 | 1018.6 |
| 20260507205741 | 64 | 162 | 2.0 | 8.0 | 0.00 | 0.00 | 0.00 | 63 | 1018.6 |
| 20260507204239 | 64 | 22 | 2.0 | 13.0 | 0.00 | 0.00 | 0.00 | 64 | 1018.5 |
| 20260507202738 | 64 | 263 | 3.0 | 7.0 | 0.00 | 0.00 | 0.00 | 63 | 1018.8 |
| 20260507201236 | 65 | 261 | 1.0 | 9.0 | 0.00 | 0.00 | 0.00 | 63 | 1018.8 |
| 20260507195736 | 66 | 131 | 3.0 | 8.0 | 0.00 | 0.00 | 0.00 | 61 | 1019.1 |
| 20260507194235 | 67 | 13 | 1.0 | 4.0 | 0.00 | 0.00 | 0.00 | 61 | 1019.0 |
| 20260507194130 | 67 | 236 | 1.0 | 2.0 | 0.00 | 0.00 | 0.00 | 62 | 1019.3 |
| 20260507191229 | 65 | 270 | 2.0 | 4.0 | 0.00 | 0.00 | 0.00 | 64 | 1019.5 |
| 20260507185729 | 64 | 245 | 2.0 | 4.0 | 0.00 | 0.00 | 0.00 | 68 | 1019.6 |
| 20260507184226 | 63 | 349 | 1.0 | 3.0 | 0.00 | 0.00 | 0.00 | 68 | 1019.8 |
| 20260507182724 | 61 | 333 | 1.0 | 3.0 | 0.00 | 0.00 | 0.00 | 73 | 1019.9 |
| 20260507181224 | 60 | 217 | 0.0 | 4.0 | 0.00 | 0.00 | 0.00 | 72 | 1020.1 |
| 20260507175721 | 59 | 33 | 2.0 | 3.0 | 0.00 | 0.00 | 0.00 | 74 | 1020.2 |
| 20260507174219 | 58 | 252 | 2.0 | 2.0 | 0.00 | 0.00 | 0.00 | 77 | 1020.1 |
| 20260507172719 | 58 | 25 | 1.0 | 2.0 | 0.00 | 0.00 | 0.00 | 79 | 1020.2 |
| 20260507171217 | 57 | 271 | 0.0 | 2.0 | 0.00 | 0.00 | 0.00 | 77 | 1020.4 |
| 20260507165719 | 56 | 268 | 0.0 | 1.0 | 0.00 | 0.00 | 0.00 | 81 | 1020.5 |
| 20260507164209 | 56 | 268 | 2.0 | 3.0 | 0.00 | 0.00 | 0.00 | 82 | 1020.5 |
| 20260507162708 | 55 | 283 | 0.0 | 0.0 | 0.00 | 0.00 | 0.00 | 82 | 1020.6 |
| 20260507161908 | 55 | 283 | 0.0 | 0.0 | 0.00 | 0.00 | 0.00 | 83 | 1020.4 |
| 20260507155650 | 55 | 283 | 0.0 | 0.0 | 0.00 | 0.00 | 0.00 | 85 | 1020.4 |
| 20260507154148 | 54 | 283 | 0.0 | 0.0 | 0.00 | 0.00 | 0.00 | 85 | 1020.5 |
| 20260507152647 | 53 | 283 | 0.0 | 0.0 | 0.00 | 0.00 | 0.00 | 85 | 1020.6 |
| 20260507151146 | 53 | 283 | 0.0 | 0.0 | 0.00 | 0.00 | 0.00 | 86 | 1020.5 |
| 20260507145637 | 53 | 283 | 0.0 | 0.0 | 0.00 | 0.00 | 0.00 | 87 | 1020.5 |
| 20260507144129 | 52 | 283 | 0.0 | 0.0 | 0.00 | 0.00 | 0.00 | 89 | 1020.5 |
| 20260507142627 | 52 | 283 | 0.0 | 0.0 | 0.00 | 0.00 | 0.00 | 90 | 1020.5 |
| 20260507141125 | 52 | 283 | 0.0 | 0.0 | 0.00 | 0.00 | 0.00 | 90 | 1020.4 |
| 20260507135623 | 51 | 283 | 0.0 | 0.0 | 0.00 | 0.00 | 0.00 | 91 | 1020.3 |
| 20260507134121 | 51 | 283 | 0.0 | 0.0 | 0.00 | 0.00 | 0.00 | 91 | 1020.1 |
| 20260507132606 | 51 | 283 | 0.0 | 0.0 | 0.00 | 0.00 | 0.00 | 92 | 1020.2 |
| 20260507131105 | 51 | 283 | 0.0 | 0.0 | 0.00 | 0.00 | 0.00 | 92 | 1020.2 |
| 20260507130300 | 51 | 283 | 0.0 | 0.0 | 0.00 | 0.00 | 0.00 | 92 | 1020.3 |
| 20260507124052 | 51 | 283 | 0.0 | 0.0 | 0.00 | 0.00 | 0.00 | 92 | 1020.3 |
| 20260507123238 | 51 | 283 | 0.0 | 0.0 | 0.00 | 0.00 | 0.00 | 92 | 1020.3 |
| 20260507121041 | 51 | 283 | 0.0 | 0.0 | 0.00 | 0.00 | 0.00 | 91 | 1020.5 |
| 20260507115526 | 52 | 283 | 0.0 | 0.0 | 0.00 | 0.00 | 0.00 | 90 | 1020.6 |
| 20260507114024 | 52 | 283 | 0.0 | 0.0 | 0.00 | 0.00 | 0.00 | 90 | 1020.8 |
| 20260507112516 | 52 | 283 | 0.0 | 0.0 | 0.00 | 0.00 | 0.00 | 90 | 1020.7 |
| 20260507110953 | 52 | 283 | 0.0 | 1.0 | 0.00 | 0.00 | 0.00 | 88 | 1020.9 |
| 20260507105451 | 52 | 226 | 0.0 | 1.0 | 0.00 | 0.00 | 0.00 | 87 | 1021.0 |
| 20260507103950 | 52 | 224 | 0.0 | 0.0 | 0.00 | 0.00 | 0.00 | 87 | 1021.0 |
| 20260507102420 | 52 | 224 | 0.0 | 0.0 | 0.00 | 0.00 | 0.00 | 88 | 1021.1 |
| 20260507101617 | 53 | 224 | 0.0 | 0.0 | 0.00 | 0.00 | 0.00 | 88 | 1021.2 |
| 20260507100110 | 53 | 224 | 0.0 | 6.0 | 0.00 | 0.00 | 0.00 | 86 | 1021.3 |
| 20260507093906 | 53 | 211 | 0.0 | 3.0 | 0.00 | 0.00 | 0.00 | 88 | 1021.4 |
| 20260507092407 | 53 | 20 | 0.0 | 1.0 | 0.00 | 0.00 | 0.00 | 88 | 1021.6 |
| 20260507090857 | 53 | 21 | 0.0 | 2.0 | 0.00 | 0.00 | 0.00 | 87 | 1021.8 |